createdAt,value
2022-07-27T00:01:04.448Z,12.82
2022-07-27T00:03:31.525Z,16.33
2022-07-27T00:05:58.367Z,14.73
2022-07-27T00:08:25.170Z,14.40
2022-07-27T00:10:53.093Z,15.05
2022-07-27T00:13:20.264Z,14.77
2022-07-27T00:15:47.262Z,14.88
2022-07-27T00:18:14.511Z,15.68
2022-07-27T00:20:41.792Z,15.15
2022-07-27T00:23:10.117Z,14.75
2022-07-27T00:25:37.119Z,16.33
2022-07-27T00:28:04.438Z,17.17
2022-07-27T00:30:31.508Z,17.02
2022-07-27T00:32:58.555Z,16.75
2022-07-27T00:35:25.555Z,16.90
2022-07-27T00:37:53.016Z,17.02
2022-07-27T00:40:20.130Z,16.95
2022-07-27T00:42:46.979Z,18.10
2022-07-27T00:45:14.281Z,18.15
2022-07-27T00:47:41.593Z,18.92
2022-07-27T00:50:08.773Z,19.27
2022-07-27T00:52:36.694Z,19.73
2022-07-27T00:55:04.845Z,20.30
2022-07-27T00:57:31.749Z,19.73
2022-07-27T00:59:58.812Z,20.40
2022-07-27T01:02:26.577Z,22.20
2022-07-27T01:04:53.888Z,21.98
2022-07-27T01:07:26.094Z,21.83
2022-07-27T01:09:59.877Z,21.50
2022-07-27T01:12:32.245Z,26.48
2022-07-27T01:14:59.837Z,25.35
2022-07-27T01:17:30.885Z,26.83
2022-07-27T01:19:59.042Z,28.42
2022-07-27T01:22:26.515Z,27.23
2022-07-27T01:24:53.446Z,28.80
2022-07-27T01:27:20.335Z,33.22
2022-07-27T01:29:48.775Z,33.33
2022-07-27T01:32:16.205Z,34.28
2022-07-27T01:34:43.292Z,34.83
2022-07-27T01:37:10.340Z,33.80
2022-07-27T01:39:37.110Z,36.90
2022-07-27T01:42:04.347Z,36.85
2022-07-27T01:44:31.373Z,37.17
2022-07-27T01:46:58.152Z,38.92
2022-07-27T01:49:25.143Z,39.25
2022-07-27T01:51:52.304Z,38.70
2022-07-27T01:54:19.202Z,40.22
2022-07-27T01:56:46.044Z,40.17
2022-07-27T01:59:16.397Z,41.28
2022-07-27T02:01:44.720Z,42.33
2022-07-27T02:04:11.810Z,42.58
2022-07-27T02:06:39.470Z,42.75
2022-07-27T02:09:06.647Z,43.50
2022-07-27T02:11:52.219Z,43.47
2022-07-27T02:14:21.397Z,42.13
2022-07-27T02:19:18.262Z,39.70
2022-07-27T02:21:45.742Z,43.30
2022-07-27T02:24:13.121Z,45.47
2022-07-27T02:26:39.951Z,45.85
2022-07-27T02:29:07.270Z,45.25
2022-07-27T02:31:34.228Z,45.60
2022-07-27T02:34:01.100Z,46.13
2022-07-27T02:36:30.941Z,48.13
2022-07-27T02:38:58.380Z,46.25
2022-07-27T02:41:25.379Z,46.50
2022-07-27T02:43:52.386Z,46.72
2022-07-27T02:46:19.463Z,47.65
2022-07-27T02:48:46.842Z,49.78
2022-07-27T02:51:15.278Z,47.58
2022-07-27T02:53:42.503Z,48.03
2022-07-27T02:56:09.471Z,49.15
2022-07-27T02:58:37.590Z,45.13
2022-07-27T03:01:05.580Z,46.15
2022-07-27T03:06:06.120Z,44.92
2022-07-27T03:08:33.232Z,44.67
2022-07-27T03:11:00.174Z,47.90
2022-07-27T03:13:28.967Z,46.33
2022-07-27T03:15:56.459Z,47.65
2022-07-27T03:18:23.516Z,47.70
2022-07-27T03:20:50.683Z,42.70
2022-07-27T03:23:20.370Z,46.08
2022-07-27T03:25:47.163Z,42.30
2022-07-27T03:28:14.210Z,41.08
2022-07-27T03:30:41.209Z,40.40
2022-07-27T03:33:08.040Z,38.22
2022-07-27T03:35:35.410Z,37.50
2022-07-27T03:38:02.456Z,36.80
2022-07-27T03:40:32.096Z,33.95
2022-07-27T03:42:59.744Z,32.55
2022-07-27T03:45:26.955Z,32.53
2022-07-27T03:47:53.849Z,30.55
2022-07-27T03:50:22.627Z,30.05
2022-07-27T03:52:50.062Z,28.92
2022-07-27T03:55:16.860Z,29.27
2022-07-27T03:57:43.936Z,28.60
2022-07-27T04:00:14.777Z,25.55
2022-07-27T04:02:41.745Z,24.83
2022-07-27T04:05:10.220Z,22.67
2022-07-27T04:07:37.004Z,23.23
2022-07-27T04:10:05.392Z,23.25
2022-07-27T04:12:32.705Z,21.73
2022-07-27T04:15:02.686Z,22.33
2022-07-27T04:17:54.703Z,22.75
2022-07-27T04:20:16.655Z,21.92
2022-07-27T04:22:43.493Z,21.50
2022-07-27T04:25:10.851Z,20.63
2022-07-27T04:27:38.512Z,21.00
2022-07-27T04:30:09.418Z,19.30
2022-07-27T04:32:36.910Z,19.45
2022-07-27T04:35:04.434Z,19.05
2022-07-27T04:37:33.075Z,19.17
2022-07-27T04:40:00.465Z,21.10
2022-07-27T04:42:28.619Z,18.58
2022-07-27T04:44:55.523Z,17.52
2022-07-27T04:47:22.551Z,17.67
2022-07-27T04:49:49.682Z,17.92
2022-07-27T04:52:17.201Z,17.50
2022-07-27T04:54:44.610Z,18.02
2022-07-27T04:57:11.788Z,17.63
2022-07-27T04:59:38.600Z,16.13
2022-07-27T05:02:05.597Z,16.25
2022-07-27T05:04:32.807Z,17.05
2022-07-27T05:06:59.703Z,17.63
2022-07-27T05:09:26.536Z,20.02
2022-07-27T05:11:53.503Z,16.42
2022-07-27T05:14:21.349Z,17.45
2022-07-27T05:16:48.806Z,17.75
2022-07-27T05:19:16.109Z,20.98
2022-07-27T05:21:43.285Z,25.83
2022-07-27T05:24:12.866Z,20.02
2022-07-27T05:26:39.973Z,22.55
2022-07-27T05:29:06.832Z,22.08
2022-07-27T05:31:33.767Z,21.80
2022-07-27T05:34:00.796Z,22.58
2022-07-27T05:36:27.619Z,24.50
2022-07-27T05:38:54.604Z,23.63
2022-07-27T05:41:26.026Z,25.10
2022-07-27T05:43:56.972Z,24.42
2022-07-27T05:46:24.922Z,25.10
2022-07-27T05:48:53.431Z,23.45
2022-07-27T05:51:20.399Z,23.40
2022-07-27T05:53:47.419Z,23.15
2022-07-27T05:56:14.256Z,23.58
2022-07-27T05:58:41.094Z,24.90
2022-07-27T06:01:08.246Z,26.60
2022-07-27T06:03:35.211Z,26.55
2022-07-27T06:06:20.816Z,35.63
2022-07-27T06:08:47.808Z,25.70
2022-07-27T06:11:14.740Z,25.40
2022-07-27T06:13:42.453Z,24.02
2022-07-27T06:16:10.125Z,26.83
2022-07-27T06:18:37.206Z,22.95
2022-07-27T06:21:04.762Z,25.30
2022-07-27T06:23:31.928Z,22.17
2022-07-27T06:25:58.940Z,21.98
2022-07-27T06:28:25.965Z,21.63
2022-07-27T06:30:53.684Z,21.65
2022-07-27T06:33:31.124Z,22.48
2022-07-27T06:35:59.737Z,21.25
2022-07-27T06:38:29.058Z,31.88
2022-07-27T06:40:56.602Z,24.13
2022-07-27T06:43:26.688Z,21.48
2022-07-27T06:45:54.608Z,22.23
2022-07-27T06:48:22.620Z,24.55
2022-07-27T06:50:50.765Z,23.02
2022-07-27T06:53:21.034Z,22.10
2022-07-27T06:55:48.626Z,21.23
2022-07-27T06:58:16.287Z,21.88
2022-07-27T07:00:43.331Z,21.67
2022-07-27T07:03:11.317Z,21.20
2022-07-27T07:05:45.139Z,22.87
2022-07-27T07:08:13.606Z,22.60
2022-07-27T07:10:43.292Z,22.20
2022-07-27T07:15:38.872Z,20.80
2022-07-27T07:18:07.773Z,21.42
2022-07-27T07:20:35.580Z,19.08
2022-07-27T07:23:02.661Z,19.92
2022-07-27T07:25:30.111Z,19.45
2022-07-27T07:27:57.167Z,19.13
2022-07-27T07:30:24.766Z,20.50
2022-07-27T07:32:52.006Z,20.23
2022-07-27T07:35:19.163Z,20.38
2022-07-27T07:37:50.239Z,19.15
2022-07-27T07:43:07.177Z,19.98
2022-07-27T07:45:38.231Z,31.38
2022-07-27T07:48:18.197Z,26.65
2022-07-27T07:50:45.255Z,18.80
2022-07-27T07:53:14.957Z,20.85
2022-07-27T07:55:41.796Z,19.50
2022-07-27T07:58:08.840Z,19.15
2022-07-27T08:00:36.076Z,18.17
2022-07-27T08:03:03.162Z,19.88
2022-07-27T08:05:33.114Z,22.48
2022-07-27T08:08:00.012Z,19.63
2022-07-27T08:10:28.248Z,18.23
2022-07-27T08:12:56.607Z,19.67
2022-07-27T08:15:29.972Z,18.80
2022-07-27T08:20:29.762Z,18.15
2022-07-27T08:22:56.707Z,17.45
2022-07-27T08:25:23.896Z,18.90
2022-07-27T08:27:50.740Z,17.20
2022-07-27T08:30:17.782Z,18.55
2022-07-27T08:32:49.059Z,17.85
2022-07-27T08:35:18.015Z,17.20
2022-07-27T08:37:45.038Z,18.55
2022-07-27T08:40:39.777Z,17.42
2022-07-27T08:43:01.586Z,17.02
2022-07-27T08:45:30.531Z,18.23
2022-07-27T08:47:57.921Z,18.40
2022-07-27T08:50:27.275Z,17.27
2022-07-27T08:53:00.377Z,61.83
2022-07-27T08:55:28.666Z,18.70
2022-07-27T08:58:00.593Z,18.48
2022-07-27T09:00:30.734Z,18.80
2022-07-27T09:02:58.220Z,121.85
2022-07-27T09:05:25.396Z,17.65
2022-07-27T09:07:54.855Z,16.92
2022-07-27T09:10:34.228Z,16.65
2022-07-27T09:13:17.366Z,25.40
2022-07-27T09:16:16.450Z,17.15
2022-07-27T09:18:38.860Z,17.15
2022-07-27T09:21:21.661Z,17.40
2022-07-27T09:23:52.188Z,17.33
2022-07-27T09:26:35.149Z,18.60
2022-07-27T09:29:04.395Z,18.13
2022-07-27T09:31:32.265Z,18.40
2022-07-27T09:34:02.092Z,17.58
2022-07-27T09:36:30.354Z,17.88
2022-07-27T09:39:03.898Z,18.13
2022-07-27T09:41:46.508Z,19.30
2022-07-27T09:44:32.521Z,16.77
2022-07-27T09:47:01.236Z,17.42
2022-07-27T09:49:30.832Z,18.83
2022-07-27T09:52:01.370Z,17.58
2022-07-27T09:54:42.462Z,19.65
2022-07-27T09:57:09.791Z,22.52
2022-07-27T09:59:36.602Z,21.95
2022-07-27T10:02:03.796Z,21.48
2022-07-27T10:04:33.189Z,25.02
2022-07-27T10:07:03.868Z,21.48
2022-07-27T10:09:34.066Z,21.83
2022-07-27T10:12:02.014Z,21.27
2022-07-27T10:14:28.884Z,19.77
2022-07-27T10:16:56.467Z,24.77
2022-07-27T10:19:31.926Z,143.27
2022-07-27T10:21:59.011Z,86.85
2022-07-27T10:24:32.883Z,212.95
2022-07-27T10:27:00.436Z,173.07
2022-07-27T10:29:27.675Z,57.13
2022-07-27T10:31:54.418Z,20.05
2022-07-27T10:34:39.572Z,21.08
2022-07-27T10:37:17.919Z,21.25
2022-07-27T10:40:12.984Z,18.70
2022-07-27T10:42:40.884Z,17.60
2022-07-27T10:45:13.658Z,18.25
2022-07-27T10:47:46.233Z,18.63
2022-07-27T10:50:16.496Z,20.52
2022-07-27T10:52:48.002Z,22.08
2022-07-27T10:55:30.434Z,18.02
2022-07-27T10:58:20.424Z,16.33
2022-07-27T11:00:54.740Z,15.15
2022-07-27T11:03:23.904Z,14.00
2022-07-27T11:06:21.945Z,15.48
2022-07-27T11:09:16.887Z,14.35
2022-07-27T11:11:37.785Z,15.20
2022-07-27T11:14:04.694Z,14.40
2022-07-27T11:16:31.693Z,13.13
2022-07-27T11:19:03.561Z,13.88
2022-07-27T11:21:34.267Z,14.32
2022-07-27T11:24:12.366Z,13.48
2022-07-27T11:26:42.747Z,13.23
2022-07-27T11:29:14.854Z,12.23
2022-07-27T11:31:59.415Z,12.10
2022-07-27T11:34:34.816Z,12.15
2022-07-27T11:37:03.755Z,12.07
2022-07-27T11:42:21.744Z,10.25
2022-07-27T11:44:52.939Z,8.75
2022-07-27T11:47:21.802Z,9.27
2022-07-27T11:49:48.739Z,7.78
2022-07-27T11:52:17.921Z,8.57
2022-07-27T11:54:51.561Z,8.52
2022-07-27T11:57:20.528Z,8.50
2022-07-27T11:59:47.376Z,8.02
2022-07-27T12:02:18.159Z,7.20
2022-07-27T12:04:47.248Z,6.82
2022-07-27T12:07:17.942Z,6.93
2022-07-27T12:09:46.337Z,6.28
2022-07-27T12:14:54.519Z,5.65
2022-07-27T12:20:11.001Z,5.68
2022-07-27T12:22:48.965Z,6.63
2022-07-27T12:25:18.779Z,5.68
2022-07-27T12:27:59.044Z,5.50
2022-07-27T12:30:45.090Z,5.20
2022-07-27T12:33:35.704Z,5.10
2022-07-27T12:36:05.687Z,4.43
2022-07-27T12:38:46.259Z,4.30
2022-07-27T12:41:35.345Z,4.50
2022-07-27T12:44:12.615Z,4.43
2022-07-27T12:46:56.292Z,4.38
2022-07-27T12:49:34.397Z,3.95
2022-07-27T12:52:08.657Z,4.33
2022-07-27T12:54:35.940Z,4.38
2022-07-27T12:57:03.561Z,4.47
2022-07-27T12:59:30.464Z,4.75
2022-07-27T13:01:57.507Z,4.35
2022-07-27T13:04:24.500Z,4.80
2022-07-27T13:06:51.348Z,5.07
2022-07-27T13:09:18.321Z,4.47
2022-07-27T13:11:48.078Z,5.40
2022-07-27T13:14:15.447Z,4.90
2022-07-27T13:16:42.553Z,4.00
2022-07-27T13:19:09.802Z,4.93
2022-07-27T13:21:36.994Z,4.60
2022-07-27T13:24:04.350Z,4.13
2022-07-27T13:26:31.191Z,5.10
2022-07-27T13:28:58.001Z,4.18
2022-07-27T13:31:25.775Z,4.30
2022-07-27T13:33:53.007Z,4.65
2022-07-27T13:36:19.780Z,4.85
2022-07-27T13:38:46.918Z,4.57
2022-07-27T13:41:13.751Z,4.30
2022-07-27T13:43:40.705Z,4.68
2022-07-27T13:46:08.625Z,4.68
2022-07-27T13:48:35.579Z,4.20
2022-07-27T13:51:03.650Z,4.60
2022-07-27T13:53:30.869Z,3.97
2022-07-27T13:55:57.783Z,5.15
2022-07-27T13:58:24.853Z,4.53
2022-07-27T14:00:52.063Z,4.43
2022-07-27T14:03:19.516Z,4.40
2022-07-27T14:05:49.113Z,4.10
2022-07-27T14:08:18.816Z,4.95
2022-07-27T14:10:45.771Z,7.47
2022-07-27T14:13:14.565Z,4.20
2022-07-27T14:18:24.807Z,6.90
2022-07-27T14:20:51.954Z,6.28
2022-07-27T14:23:18.931Z,5.18
2022-07-27T14:25:46.480Z,4.80
2022-07-27T14:28:13.625Z,5.10
2022-07-27T14:30:40.466Z,5.40
2022-07-27T14:33:07.217Z,4.93
2022-07-27T14:35:39.901Z,5.03
2022-07-27T14:38:07.659Z,4.18
2022-07-27T14:40:34.475Z,5.50
2022-07-27T14:43:01.780Z,5.07
2022-07-27T14:45:44.652Z,5.03
2022-07-27T14:48:28.234Z,5.43
2022-07-27T14:51:01.106Z,5.72
2022-07-27T14:55:54.934Z,10.63
2022-07-27T14:58:21.866Z,12.30
2022-07-27T15:00:48.933Z,5.05
2022-07-27T15:03:16.107Z,5.30
2022-07-27T15:05:50.470Z,5.10
2022-07-27T15:08:20.091Z,5.35
2022-07-27T15:10:47.951Z,4.80
2022-07-27T15:13:15.032Z,5.45
2022-07-27T15:15:42.468Z,4.18
2022-07-27T15:18:09.451Z,4.03
2022-07-27T15:20:36.805Z,3.67
2022-07-27T15:23:06.647Z,3.60
2022-07-27T15:25:34.013Z,4.22
2022-07-27T15:28:01.109Z,3.80
2022-07-27T15:30:28.389Z,3.85
2022-07-27T15:32:55.174Z,3.90
2022-07-27T15:35:22.069Z,4.10
2022-07-27T15:37:53.535Z,3.97
2022-07-27T15:40:38.661Z,3.35
2022-07-27T15:43:08.503Z,3.30
2022-07-27T15:45:38.943Z,3.50
2022-07-27T15:48:08.636Z,4.05
2022-07-27T15:50:40.134Z,3.55
2022-07-27T15:53:07.927Z,3.60
2022-07-27T15:55:37.511Z,19.27
2022-07-27T15:58:06.269Z,89.20
2022-07-27T16:00:39.184Z,5.25
2022-07-27T16:03:07.772Z,81.30
2022-07-27T16:05:35.287Z,117.15
2022-07-27T16:08:02.520Z,4.45
2022-07-27T16:10:30.266Z,3.85
2022-07-27T16:12:57.771Z,4.80
2022-07-27T16:15:44.691Z,4.00
2022-07-27T16:18:12.294Z,4.43
2022-07-27T16:20:39.528Z,4.20
2022-07-27T16:23:18.818Z,4.60
2022-07-27T16:26:10.036Z,4.90
2022-07-27T16:28:39.855Z,4.13
2022-07-27T16:31:08.414Z,4.47
2022-07-27T16:33:35.363Z,4.45
2022-07-27T16:36:02.308Z,4.93
2022-07-27T16:38:29.468Z,4.95
2022-07-27T16:40:56.335Z,5.72
2022-07-27T16:43:23.222Z,5.40
2022-07-27T16:46:07.006Z,5.18
2022-07-27T16:48:41.622Z,6.32
2022-07-27T16:51:14.566Z,5.95
2022-07-27T16:53:45.706Z,6.03
2022-07-27T16:56:12.741Z,6.10
2022-07-27T16:58:39.878Z,6.03
2022-07-27T17:01:07.658Z,6.05
2022-07-27T17:03:34.849Z,5.30
2022-07-27T17:06:06.049Z,5.60
2022-07-27T17:08:35.785Z,5.88
2022-07-27T17:13:34.545Z,5.63
2022-07-27T17:16:06.916Z,6.40
2022-07-27T17:18:40.302Z,5.28
2022-07-27T17:21:15.247Z,6.72
2022-07-27T17:23:44.013Z,6.70
2022-07-27T17:26:12.247Z,7.28
2022-07-27T17:28:40.419Z,6.30
2022-07-27T17:31:10.304Z,5.95
2022-07-27T17:33:38.627Z,5.43
2022-07-27T17:36:09.539Z,5.50
2022-07-27T17:38:41.414Z,6.25
2022-07-27T17:41:08.269Z,5.72
2022-07-27T17:43:38.656Z,6.20
2022-07-27T17:46:07.548Z,5.57
2022-07-27T17:48:35.700Z,6.22
2022-07-27T17:51:03.608Z,7.10
2022-07-27T17:53:30.724Z,7.05
2022-07-27T17:55:57.639Z,7.40
2022-07-27T17:58:29.762Z,9.35
2022-07-27T18:00:57.879Z,7.22
2022-07-27T18:03:24.724Z,8.50
2022-07-27T18:05:51.522Z,7.70
2022-07-27T18:08:18.668Z,10.40
2022-07-27T18:10:45.648Z,11.23
2022-07-27T18:13:12.690Z,10.05
2022-07-27T18:15:48.717Z,11.00
2022-07-27T18:18:26.537Z,10.45
2022-07-27T18:20:56.660Z,10.02
2022-07-27T18:23:26.084Z,9.80
2022-07-27T18:25:53.030Z,12.35
2022-07-27T18:28:21.284Z,15.82
2022-07-27T18:30:50.745Z,21.55
2022-07-27T18:33:17.932Z,35.25
2022-07-27T18:35:46.445Z,39.53
2022-07-27T18:38:14.218Z,29.83
2022-07-27T18:40:42.767Z,26.38
2022-07-27T18:43:10.872Z,44.42
2022-07-27T18:45:39.305Z,46.10
2022-07-27T18:48:10.391Z,44.55
2022-07-27T18:50:39.592Z,38.95
2022-07-27T18:55:33.940Z,30.67
2022-07-27T18:58:01.906Z,29.13
2022-07-27T19:00:28.860Z,28.13
2022-07-27T19:02:58.068Z,31.13
2022-07-27T19:05:32.260Z,30.02
2022-07-27T19:08:00.023Z,25.67
2022-07-27T19:10:27.337Z,24.70
2022-07-27T19:12:55.687Z,21.10
2022-07-27T19:15:22.771Z,20.47
2022-07-27T19:17:49.816Z,20.40
2022-07-27T19:20:16.723Z,19.65
2022-07-27T19:22:47.801Z,19.00
2022-07-27T19:25:15.622Z,21.73
2022-07-27T19:27:43.234Z,20.58
2022-07-27T19:30:12.390Z,19.85
2022-07-27T19:35:07.040Z,19.73
2022-07-27T19:37:34.095Z,25.38
2022-07-27T19:40:20.233Z,26.70
2022-07-27T19:42:48.273Z,23.50
2022-07-27T19:45:15.410Z,26.15
2022-07-27T19:47:42.296Z,25.33
2022-07-27T19:50:09.574Z,22.35
2022-07-27T19:52:36.648Z,19.77
2022-07-27T19:55:04.873Z,17.33
2022-07-27T19:57:31.711Z,17.45
2022-07-27T19:59:58.977Z,19.08
2022-07-27T20:02:25.917Z,19.30
2022-07-27T20:04:53.099Z,18.40
2022-07-27T20:07:20.167Z,17.40
2022-07-27T20:09:48.509Z,18.03
2022-07-27T20:12:15.382Z,17.85
2022-07-27T20:14:42.527Z,16.92
2022-07-27T20:17:09.536Z,17.55
2022-07-27T20:19:36.386Z,17.40
2022-07-27T20:22:03.625Z,18.45
2022-07-27T20:24:30.571Z,17.88
2022-07-27T20:26:57.586Z,17.73
2022-07-27T20:29:29.127Z,16.83
2022-07-27T20:31:58.956Z,16.63
2022-07-27T20:34:26.189Z,17.15
2022-07-27T20:36:55.242Z,16.70
2022-07-27T20:39:23.714Z,16.40
2022-07-27T20:41:51.137Z,16.98
2022-07-27T20:44:17.954Z,18.30
2022-07-27T20:46:44.787Z,17.08
2022-07-27T20:49:12.117Z,17.25
2022-07-27T20:51:40.863Z,17.90
2022-07-27T20:54:07.976Z,17.17
2022-07-27T20:56:34.982Z,15.63
2022-07-27T20:59:01.933Z,17.77
2022-07-27T21:01:34.525Z,17.45
2022-07-27T21:04:01.702Z,18.02
2022-07-27T21:06:28.917Z,17.58
2022-07-27T21:08:55.808Z,18.05
2022-07-27T21:11:22.808Z,18.27
2022-07-27T21:13:49.689Z,17.63
2022-07-27T21:16:16.556Z,18.45
2022-07-27T21:18:43.756Z,20.63
2022-07-27T21:21:10.576Z,22.27
2022-07-27T21:23:56.416Z,23.27
2022-07-27T21:26:23.565Z,23.67
2022-07-27T21:28:50.375Z,22.75
2022-07-27T21:31:17.432Z,21.02
2022-07-27T21:33:44.530Z,21.70
2022-07-27T21:36:11.380Z,22.02
2022-07-27T21:38:38.145Z,20.73
2022-07-27T21:41:05.875Z,20.08
2022-07-27T21:43:33.686Z,17.92
2022-07-27T21:46:00.546Z,18.10
2022-07-27T21:48:27.635Z,17.15
2022-07-27T21:50:54.403Z,18.50
2022-07-27T21:53:21.265Z,15.82
2022-07-27T21:55:48.298Z,16.33
2022-07-27T21:58:15.553Z,15.57
2022-07-27T22:00:42.560Z,14.48
2022-07-27T22:03:10.119Z,14.95
2022-07-27T22:05:37.124Z,13.57
2022-07-27T22:08:04.100Z,13.73
2022-07-27T22:10:31.641Z,12.82
2022-07-27T22:12:58.605Z,12.88
2022-07-27T22:15:26.052Z,13.32
2022-07-27T22:17:53.212Z,13.95
2022-07-27T22:20:21.227Z,13.55
2022-07-27T22:22:48.837Z,12.75
2022-07-27T22:25:16.152Z,12.48
2022-07-27T22:27:42.989Z,13.20
2022-07-27T22:30:09.919Z,13.02
2022-07-27T22:32:36.936Z,12.88
2022-07-27T22:35:03.974Z,12.82
2022-07-27T22:37:30.814Z,14.32
2022-07-27T22:39:57.888Z,12.32
2022-07-27T22:42:24.708Z,13.32
2022-07-27T22:44:51.509Z,12.90
2022-07-27T22:47:18.802Z,13.25
2022-07-27T22:49:45.648Z,13.13
2022-07-27T22:52:12.506Z,13.48
2022-07-27T22:54:39.594Z,14.98
2022-07-27T22:57:06.482Z,14.40
2022-07-27T22:59:34.714Z,15.77
2022-07-27T23:02:02.292Z,18.30
2022-07-27T23:04:29.169Z,17.13
2022-07-27T23:06:56.670Z,17.42
2022-07-27T23:09:24.083Z,18.02
2022-07-27T23:11:51.390Z,15.73
2022-07-27T23:14:18.933Z,16.35
2022-07-27T23:16:46.447Z,17.52
2022-07-27T23:19:13.377Z,19.45
2022-07-27T23:21:42.040Z,19.58
2022-07-27T23:24:11.167Z,25.70
2022-07-27T23:26:40.389Z,27.60
2022-07-27T23:29:07.314Z,27.40
2022-07-27T23:31:34.656Z,29.90
2022-07-27T23:34:01.671Z,22.92
2022-07-27T23:36:28.575Z,20.10
2022-07-27T23:38:55.584Z,15.93
2022-07-27T23:41:22.569Z,14.00
2022-07-27T23:43:49.378Z,13.40
2022-07-27T23:46:16.520Z,11.75
2022-07-27T23:48:44.054Z,11.50
2022-07-27T23:51:17.889Z,11.93
2022-07-27T23:53:45.225Z,10.95
2022-07-27T23:56:12.010Z,11.70
2022-07-27T23:58:38.836Z,11.88
